createdAt,value
2019-03-22T00:00:25.926Z,0.00
2019-03-22T00:01:25.897Z,0.00
2019-03-22T00:02:25.906Z,0.00
2019-03-22T00:03:25.877Z,0.00
2019-03-22T00:04:25.876Z,0.00
2019-03-22T00:05:25.910Z,0.00
2019-03-22T00:06:25.841Z,0.00
2019-03-22T00:07:25.850Z,0.00
2019-03-22T00:08:25.841Z,0.00
2019-03-22T00:09:25.812Z,0.00
2019-03-22T00:10:25.805Z,0.00
2019-03-22T00:11:25.810Z,0.00
2019-03-22T00:12:25.782Z,0.00
2019-03-22T00:13:25.790Z,0.00
2019-03-22T00:14:25.761Z,0.00
2019-03-22T00:15:25.750Z,0.00
2019-03-22T00:16:25.736Z,0.00
2019-03-22T00:17:25.729Z,0.00
2019-03-22T00:18:25.728Z,0.00
2019-03-22T00:19:25.716Z,0.00
2019-03-22T00:20:25.697Z,0.00
2019-03-22T00:21:25.685Z,0.00
2019-03-22T00:22:25.695Z,0.00
2019-03-22T00:23:25.663Z,0.00
2019-03-22T00:24:25.664Z,0.00
2019-03-22T00:25:25.638Z,0.00
2019-03-22T00:26:25.651Z,0.00
2019-03-22T00:27:25.615Z,0.00
2019-03-22T00:28:25.625Z,0.00
2019-03-22T00:29:25.601Z,0.00
2019-03-22T05:00:45.856Z,0.00
2019-03-22T05:01:45.840Z,4.00
2019-03-22T05:02:45.844Z,0.00
2019-03-22T05:03:45.820Z,4.00
2019-03-22T05:04:45.819Z,4.00
2019-03-22T05:05:45.798Z,8.00
2019-03-22T05:06:45.791Z,8.00
2019-03-22T05:07:45.790Z,8.00
2019-03-22T05:08:45.763Z,8.00
2019-03-22T05:09:53.303Z,16.00
2019-03-22T05:10:45.739Z,12.00
2019-03-22T05:11:45.737Z,16.00
2019-03-22T05:12:45.721Z,20.00
2019-03-22T05:13:45.728Z,24.00
2019-03-22T05:14:45.701Z,32.00
2019-03-22T05:15:45.703Z,44.00
2019-03-22T05:16:45.675Z,52.00
2019-03-22T05:17:45.677Z,64.00
2019-03-22T05:18:45.655Z,76.00
2019-03-22T05:19:45.644Z,84.00
2019-03-22T05:20:45.644Z,92.00
2019-03-22T05:21:45.647Z,100.00
2019-03-22T05:22:45.635Z,112.00
2019-03-22T05:23:45.600Z,120.00
2019-03-22T05:24:45.596Z,132.00
2019-03-22T05:25:45.585Z,144.00
2019-03-22T05:26:45.643Z,164.00
2019-03-22T05:27:45.577Z,180.00
2019-03-22T05:28:45.544Z,200.00
2019-03-22T05:29:45.532Z,220.00
2019-03-22T05:30:45.806Z,240.00
2019-03-22T05:31:45.584Z,264.00
2019-03-22T05:32:45.876Z,296.00
2019-03-22T05:33:45.528Z,328.00
2019-03-22T05:34:45.546Z,356.00
2019-03-22T05:35:45.660Z,388.00
2019-03-22T05:36:45.458Z,420.00
2019-03-22T05:37:45.487Z,460.00
2019-03-22T05:38:45.434Z,496.00
2019-03-22T05:39:45.473Z,540.00
2019-03-22T05:40:45.418Z,580.00
2019-03-22T05:41:45.444Z,628.00
2019-03-22T05:42:45.411Z,676.00
2019-03-22T05:43:45.387Z,724.00
2019-03-22T05:44:45.416Z,784.00
2019-03-22T05:45:45.370Z,840.00
2019-03-22T05:46:45.360Z,900.00
2019-03-22T05:47:45.355Z,960.00
2019-03-22T05:48:45.910Z,1024.00
2019-03-22T05:49:45.342Z,1088.00
2019-03-22T05:50:45.345Z,1156.00
2019-03-22T05:51:45.310Z,1224.00
2019-03-22T05:52:45.303Z,1296.00
2019-03-22T05:53:45.279Z,1376.00
2019-03-22T05:54:45.288Z,1452.00
2019-03-22T05:55:45.295Z,1536.00
2019-03-22T05:56:45.242Z,1628.00
2019-03-22T05:57:45.232Z,1736.00
2019-03-22T05:58:45.229Z,1856.00
2019-03-22T05:59:45.213Z,2012.00
2019-03-22T06:00:45.212Z,2252.00
2019-03-22T06:01:45.545Z,2884.00
2019-03-22T06:02:45.178Z,4256.00
2019-03-22T06:03:45.173Z,6140.00
2019-03-22T06:04:45.164Z,7720.00
2019-03-22T06:05:45.172Z,6480.00
2019-03-22T06:06:45.152Z,4040.00
2019-03-22T06:07:45.135Z,3032.00
2019-03-22T06:08:45.122Z,2700.00
2019-03-22T06:09:45.124Z,2648.00
2019-03-22T06:10:45.112Z,2676.00
2019-03-22T06:11:45.084Z,2724.00
2019-03-22T06:12:45.096Z,2788.00
2019-03-22T06:13:45.092Z,2868.00
2019-03-22T06:14:45.075Z,2956.00
2019-03-22T06:15:45.109Z,3056.00
2019-03-22T06:16:45.052Z,3160.00
2019-03-22T06:17:51.751Z,3260.00
2019-03-22T06:18:46.096Z,3372.00
2019-03-22T06:19:45.001Z,3492.00
2019-03-22T06:20:45.004Z,3644.00
2019-03-22T06:21:44.991Z,3852.00
2019-03-22T06:22:44.981Z,4016.00
2019-03-22T06:23:44.961Z,4176.00
2019-03-22T06:24:44.953Z,4404.00
2019-03-22T06:25:46.523Z,4880.00
2019-03-22T06:26:45.057Z,5808.00
2019-03-22T06:27:47.356Z,6972.00
2019-03-22T06:28:47.456Z,6852.00
2019-03-22T06:29:53.562Z,6080.00
2019-03-22T06:30:45.890Z,5564.00
2019-03-22T06:31:44.890Z,5536.00
2019-03-22T06:32:44.862Z,5584.00
2019-03-22T06:33:44.849Z,5724.00
2019-03-22T06:34:44.843Z,5544.00
2019-03-22T06:35:44.828Z,6220.00
2019-03-22T06:36:44.833Z,6736.00
2019-03-22T06:37:44.827Z,7260.00
2019-03-22T06:38:44.814Z,7252.00
2019-03-22T06:39:44.787Z,7020.00
2019-03-22T06:40:44.775Z,6844.00
2019-03-22T06:41:44.796Z,7440.00
2019-03-22T06:42:44.752Z,7836.00
2019-03-22T06:43:44.781Z,8376.00
2019-03-22T06:44:44.748Z,8760.00
2019-03-22T06:45:44.724Z,8288.00
2019-03-22T06:46:44.729Z,8512.00
2019-03-22T06:47:44.703Z,12504.00
2019-03-22T07:00:09.980Z,7268.00
2019-03-22T07:01:06.159Z,6520.00
2019-03-22T07:04:43.362Z,6124.00
2019-03-22T07:05:42.774Z,6096.00
2019-03-22T07:06:43.583Z,5904.00
2019-03-22T07:07:42.750Z,5860.00
2019-03-22T07:08:43.640Z,5976.00
2019-03-22T07:11:52.090Z,6968.00
2019-03-22T07:12:52.087Z,6992.00
2019-03-22T07:26:45.743Z,6400.00
2019-03-22T07:27:45.721Z,6408.00
2019-03-22T07:28:45.774Z,6412.00
2019-03-22T07:29:45.756Z,6340.00
2019-03-22T07:30:46.355Z,6296.00
2019-03-22T07:31:45.489Z,6304.00
2019-03-22T07:32:45.500Z,6416.00
2019-03-22T07:33:45.491Z,6380.00
2019-03-22T07:34:45.474Z,6312.00
2019-03-22T07:35:45.451Z,6248.00
2019-03-22T07:36:47.026Z,6356.00
2019-03-22T07:37:45.457Z,6300.00
2019-03-22T07:38:45.636Z,6236.00
2019-03-22T07:39:45.416Z,6284.00
2019-03-22T07:40:45.389Z,6152.00
2019-03-22T07:41:45.397Z,6188.00
2019-03-22T07:42:45.403Z,6264.00
2019-03-22T07:43:45.362Z,6040.00
2019-03-22T07:44:45.350Z,5924.00
2019-03-22T07:45:45.334Z,5976.00
2019-03-22T07:46:45.320Z,6132.00
2019-03-22T07:47:45.369Z,6132.00
2019-03-22T07:48:45.322Z,6004.00
2019-03-22T07:49:45.294Z,5928.00
2019-03-22T07:50:45.285Z,5892.00
2019-03-22T07:51:45.271Z,5992.00
2019-03-22T07:52:45.262Z,5776.00
2019-03-22T07:53:45.267Z,5568.00
2019-03-22T07:54:45.243Z,5764.00
2019-03-22T07:55:45.227Z,5552.00
2019-03-22T07:56:45.218Z,5576.00
2019-03-22T07:57:45.202Z,5480.00
2019-03-22T07:58:45.206Z,5620.00
2019-03-22T07:59:45.186Z,5772.00
2019-03-22T08:00:45.177Z,5700.00
2019-03-22T08:01:45.191Z,5888.00
2019-03-22T08:02:45.155Z,6120.00
2019-03-22T08:03:45.136Z,6128.00
2019-03-22T08:04:45.135Z,5916.00
2019-03-22T08:05:51.022Z,5992.00
2019-03-22T08:06:46.124Z,5868.00
2019-03-22T08:07:45.093Z,6064.00
2019-03-22T08:08:45.095Z,6048.00
2019-03-22T08:09:45.120Z,6344.00
2019-03-22T08:10:45.080Z,5716.00
2019-03-22T08:11:45.053Z,5724.00
2019-03-22T08:12:45.086Z,5648.00
2019-03-22T08:13:45.031Z,5748.00
2019-03-22T08:14:45.023Z,6028.00
2019-03-22T08:15:45.005Z,6232.00
2019-03-22T08:16:45.005Z,6172.00
2019-03-22T08:17:45.017Z,6172.00
2019-03-22T08:18:44.985Z,6532.00
2019-03-22T08:19:44.971Z,6936.00
2019-03-22T08:20:44.957Z,6824.00
2019-03-22T08:21:44.973Z,6796.00
2019-03-22T08:22:44.934Z,6800.00
2019-03-22T08:23:44.961Z,6896.00
2019-03-22T08:24:44.935Z,6876.00
2019-03-22T08:25:44.916Z,6868.00
2019-03-22T08:26:44.918Z,7048.00
2019-03-22T08:27:44.883Z,7084.00
2019-03-22T08:28:44.883Z,7288.00
2019-03-22T08:29:44.877Z,7260.00
2019-03-22T08:30:44.869Z,7220.00
2019-03-22T08:31:52.409Z,7336.00
2019-03-22T08:32:52.364Z,7368.00
2019-03-22T08:33:53.639Z,7380.00
2019-03-22T08:34:52.367Z,7396.00
2019-03-22T08:35:44.807Z,7408.00
2019-03-22T08:36:44.786Z,7428.00
2019-03-22T08:37:52.630Z,7536.00
2019-03-22T08:39:55.918Z,7440.00
2019-03-22T08:42:02.910Z,6432.00
2019-03-22T08:43:02.918Z,6196.00
2019-03-22T08:44:03.159Z,6488.00
2019-03-22T08:45:02.904Z,7116.00
2019-03-22T08:46:02.889Z,7180.00
2019-03-22T08:47:02.903Z,7328.00
2019-03-22T08:48:02.918Z,7396.00
2019-03-22T08:49:02.926Z,7452.00
2019-03-22T08:50:02.864Z,7536.00
2019-03-22T08:51:02.812Z,7520.00
2019-03-22T08:52:02.824Z,7452.00
2019-03-22T08:53:02.798Z,7248.00
2019-03-22T08:54:02.796Z,7272.00
2019-03-22T08:55:02.771Z,7496.00
2019-03-22T08:56:02.797Z,7228.00
2019-03-22T08:57:02.795Z,6596.00
2019-03-22T08:58:02.760Z,6220.00
2019-03-22T08:59:02.746Z,6252.00
2019-03-22T09:00:02.740Z,7172.00
2019-03-22T09:01:02.749Z,7464.00
2019-03-22T09:02:02.712Z,7624.00
2019-03-22T09:03:02.747Z,7644.00
2019-03-22T09:04:02.723Z,7624.00
2019-03-22T09:05:02.662Z,7592.00
2019-03-22T09:06:02.671Z,7420.00
2019-03-22T09:07:02.658Z,7684.00
2019-03-22T09:08:02.640Z,7580.00
2019-03-22T09:09:02.692Z,7428.00
2019-03-22T09:10:02.615Z,7352.00
2019-03-22T09:11:02.621Z,7368.00
2019-03-22T09:12:02.624Z,7332.00
2019-03-22T09:13:02.592Z,7392.00
2019-03-22T09:14:02.564Z,7448.00
2019-03-22T09:15:02.576Z,7300.00
2019-03-22T09:16:02.562Z,7352.00
2019-03-22T09:17:02.559Z,7260.00
2019-03-22T09:18:02.573Z,7048.00
2019-03-22T09:19:02.534Z,6912.00
2019-03-22T09:20:02.549Z,6632.00
2019-03-22T09:21:02.527Z,6644.00
2019-03-22T09:22:02.486Z,6648.00
2019-03-22T09:23:02.522Z,6912.00
2019-03-22T09:24:02.519Z,6640.00
2019-03-22T09:25:02.491Z,6416.00
2019-03-22T09:26:02.473Z,7244.00
2019-03-22T09:27:02.424Z,6780.00
2019-03-22T09:28:02.425Z,6404.00
2019-03-22T09:29:02.415Z,7120.00
2019-03-22T09:30:02.448Z,7668.00
2019-03-22T09:31:10.142Z,7616.00
2019-03-22T09:32:03.408Z,7524.00
2019-03-22T09:33:02.373Z,7532.00
2019-03-22T09:34:02.356Z,7304.00
2019-03-22T09:35:02.341Z,7240.00
2019-03-22T09:36:02.369Z,7184.00
2019-03-22T09:37:02.317Z,7252.00
2019-03-22T09:38:12.416Z,7192.00
2019-03-22T09:39:03.302Z,7352.00
2019-03-22T09:40:02.311Z,7284.00
2019-03-22T09:41:02.279Z,7396.00
2019-03-22T09:42:02.283Z,7520.00
2019-03-22T09:43:02.287Z,7468.00
2019-03-22T09:44:02.280Z,7464.00
2019-03-22T09:45:02.244Z,7344.00
2019-03-22T09:46:02.237Z,7464.00
2019-03-22T09:47:02.225Z,7420.00
2019-03-22T09:48:02.195Z,7404.00
2019-03-22T09:49:02.280Z,7324.00
2019-03-22T09:50:02.207Z,7336.00
2019-03-22T09:51:02.301Z,7292.00
2019-03-22T09:52:02.196Z,7004.00
2019-03-22T09:53:02.204Z,6928.00
2019-03-22T09:54:02.152Z,7192.00
2019-03-22T09:55:12.642Z,7120.00
2019-03-22T09:56:03.111Z,7120.00
2019-03-22T09:57:02.120Z,7000.00
2019-03-22T09:58:02.154Z,6920.00
2019-03-22T09:59:02.078Z,6752.00
2019-03-22T10:00:02.104Z,6636.00
2019-03-22T10:01:02.139Z,6728.00
2019-03-22T10:02:02.066Z,6096.00
2019-03-22T10:03:02.089Z,6236.00
2019-03-22T10:04:02.186Z,6236.00
2019-03-22T10:05:02.143Z,6252.00
2019-03-22T10:06:02.025Z,6312.00
2019-03-22T10:07:01.993Z,6060.00
2019-03-22T10:08:01.987Z,6072.00
2019-03-22T10:09:05.356Z,6028.00
2019-03-22T10:10:01.989Z,6204.00
2019-03-22T10:11:02.006Z,6484.00
2019-03-22T10:12:01.936Z,6596.00
2019-03-22T10:14:12.093Z,6380.00
2019-03-22T10:15:11.246Z,6060.00
2019-03-22T10:16:11.273Z,5848.00
2019-03-22T10:17:11.259Z,6036.00
2019-03-22T10:18:11.216Z,6404.00
2019-03-22T10:19:11.227Z,6128.00
2019-03-22T10:20:11.187Z,6280.00
2019-03-22T10:21:21.840Z,5880.00
2019-03-22T10:22:12.203Z,6400.00
2019-03-22T10:23:11.242Z,6636.00
2019-03-22T10:24:11.171Z,6660.00
2019-03-22T10:25:11.171Z,6720.00
2019-03-22T10:26:11.137Z,6792.00
2019-03-22T10:27:11.273Z,6836.00
2019-03-22T10:28:11.111Z,6828.00
2019-03-22T10:29:11.087Z,6804.00
2019-03-22T10:30:11.094Z,6832.00
2019-03-22T10:31:11.063Z,6908.00
2019-03-22T10:32:11.056Z,6592.00
2019-03-22T10:33:22.136Z,6696.00
2019-03-22T10:34:12.031Z,6640.00
2019-03-22T10:35:11.025Z,6940.00
2019-03-22T10:36:11.027Z,6932.00
2019-03-22T10:37:11.037Z,7036.00
2019-03-22T10:38:16.494Z,7028.00
2019-03-22T10:39:12.092Z,6940.00
2019-03-22T10:40:10.982Z,6928.00
2019-03-22T10:41:10.956Z,6896.00
2019-03-22T10:42:10.955Z,6864.00
2019-03-22T10:43:10.970Z,6876.00
2019-03-22T10:44:11.000Z,6896.00
2019-03-22T10:45:10.922Z,6924.00
2019-03-22T10:46:10.910Z,6996.00
2019-03-22T10:47:10.918Z,7056.00
2019-03-22T10:48:10.880Z,7092.00
2019-03-22T10:49:10.883Z,7088.00
2019-03-22T10:50:10.901Z,7068.00
2019-03-22T10:51:10.892Z,7092.00
2019-03-22T10:52:10.850Z,7084.00
2019-03-22T10:53:10.824Z,7068.00
2019-03-22T10:54:10.814Z,7080.00
2019-03-22T10:55:28.380Z,7088.00
2019-03-22T10:56:11.805Z,7080.00
2019-03-22T10:57:10.787Z,7080.00
2019-03-22T10:58:21.020Z,7072.00
2019-03-22T10:59:11.764Z,7088.00
2019-03-22T11:00:10.748Z,7076.00
2019-03-22T11:01:10.782Z,7060.00
2019-03-22T11:02:10.731Z,7052.00
2019-03-22T11:03:10.723Z,7032.00
2019-03-22T11:04:10.717Z,7028.00
2019-03-22T11:05:10.702Z,7020.00
2019-03-22T11:06:10.701Z,7016.00
2019-03-22T11:07:10.698Z,7016.00
2019-03-22T11:08:10.667Z,7024.00
2019-03-22T11:09:11.380Z,7020.00
2019-03-22T11:10:11.829Z,7024.00
2019-03-22T11:11:10.666Z,7008.00
2019-03-22T11:12:12.370Z,7000.00
2019-03-22T11:13:10.612Z,7008.00
2019-03-22T11:14:10.598Z,7004.00
2019-03-22T11:15:10.597Z,7004.00
2019-03-22T11:16:10.583Z,6996.00
2019-03-22T11:17:10.631Z,6996.00
2019-03-22T11:18:10.569Z,6984.00
2019-03-22T11:19:10.548Z,6976.00
2019-03-22T11:20:10.536Z,6972.00
2019-03-22T11:21:10.529Z,6976.00
2019-03-22T11:22:10.522Z,6968.00
2019-03-22T11:23:10.526Z,6960.00
2019-03-22T11:24:10.503Z,6972.00
2019-03-22T11:25:10.492Z,6972.00
2019-03-22T11:26:10.479Z,6944.00
2019-03-22T11:27:10.481Z,6956.00
2019-03-22T11:28:12.019Z,6952.00
2019-03-22T11:29:10.453Z,6956.00
2019-03-22T11:30:10.434Z,6940.00
2019-03-22T11:31:10.432Z,6920.00
2019-03-22T11:32:12.871Z,6920.00
2019-03-22T11:33:10.415Z,6928.00
2019-03-22T11:34:10.398Z,6920.00
2019-03-22T11:35:10.383Z,6912.00
2019-03-22T11:36:10.372Z,6912.00
2019-03-22T11:37:10.375Z,6920.00
2019-03-22T11:38:10.358Z,6916.00
2019-03-22T11:39:15.541Z,6908.00
2019-03-22T11:40:11.346Z,6912.00
2019-03-22T11:41:10.319Z,6916.00
2019-03-22T11:42:10.311Z,6924.00
2019-03-22T11:43:10.318Z,6924.00
2019-03-22T11:44:10.298Z,6920.00
2019-03-22T11:45:10.273Z,6916.00
2019-03-22T11:46:10.264Z,6908.00
2019-03-22T11:47:10.288Z,6916.00
2019-03-22T11:48:10.240Z,6916.00
2019-03-22T11:49:10.246Z,6924.00
2019-03-22T11:50:10.218Z,6920.00
2019-03-22T11:51:10.230Z,6916.00
2019-03-22T11:52:10.197Z,6916.00
2019-03-22T11:53:10.208Z,6912.00
2019-03-22T11:54:10.180Z,6912.00
2019-03-22T11:55:10.167Z,6924.00
2019-03-22T11:56:10.160Z,6920.00
2019-03-22T11:57:10.146Z,6912.00
2019-03-22T11:58:10.137Z,6896.00
2019-03-22T11:59:10.133Z,6916.00
2019-03-22T12:00:10.111Z,6920.00
2019-03-22T12:01:19.114Z,6924.00
2019-03-22T12:02:11.093Z,6932.00
2019-03-22T12:03:10.084Z,6932.00
2019-03-22T12:04:11.864Z,6936.00
2019-03-22T12:05:10.091Z,6912.00
2019-03-22T12:06:10.049Z,6948.00
2019-03-22T12:07:10.040Z,6708.00
2019-03-22T12:08:10.028Z,6532.00
2019-03-22T12:09:10.029Z,6640.00
2019-03-22T12:10:10.017Z,6700.00
2019-03-22T12:11:10.005Z,6740.00
2019-03-22T12:12:09.989Z,6920.00
2019-03-22T12:13:09.986Z,6904.00
2019-03-22T12:14:09.964Z,6904.00
2019-03-22T12:15:09.961Z,6892.00
2019-03-22T12:16:09.963Z,6888.00
2019-03-22T12:17:09.933Z,6896.00
2019-03-22T12:18:09.923Z,6900.00
2019-03-22T12:19:09.913Z,6884.00
2019-03-22T12:20:09.901Z,6884.00
2019-03-22T12:21:09.915Z,6876.00
2019-03-22T12:22:09.877Z,6876.00
2019-03-22T12:23:09.863Z,6860.00
2019-03-22T12:24:09.857Z,6868.00
2019-03-22T12:25:09.873Z,6864.00
2019-03-22T12:26:09.843Z,6884.00
2019-03-22T12:27:09.827Z,6864.00
2019-03-22T12:28:09.816Z,6860.00
2019-03-22T12:29:09.802Z,6856.00
2019-03-22T12:30:09.792Z,6856.00
2019-03-22T12:31:09.803Z,6832.00
2019-03-22T12:32:09.773Z,6828.00
2019-03-22T12:33:09.767Z,6824.00
2019-03-22T12:34:09.754Z,6828.00
2019-03-22T12:35:09.737Z,6828.00
2019-03-22T12:36:09.729Z,6816.00
2019-03-22T12:37:09.733Z,6812.00
2019-03-22T12:38:09.714Z,6828.00
2019-03-22T12:39:09.700Z,6828.00
2019-03-22T12:40:09.692Z,6804.00
2019-03-22T12:41:09.676Z,6820.00
2019-03-22T12:42:09.676Z,6792.00
2019-03-22T12:43:09.654Z,6816.00
2019-03-22T12:44:09.656Z,6812.00
2019-03-22T12:45:09.635Z,6812.00
2019-03-22T12:46:09.628Z,6812.00
2019-03-22T12:47:09.628Z,6816.00
2019-03-22T12:48:09.603Z,6796.00
2019-03-22T12:49:09.594Z,6808.00
2019-03-22T12:50:09.577Z,6804.00
2019-03-22T12:51:09.572Z,6788.00
2019-03-22T12:52:09.587Z,6800.00
2019-03-22T12:53:09.581Z,6788.00
2019-03-22T12:54:09.540Z,6776.00
2019-03-22T12:55:09.549Z,6768.00
2019-03-22T12:56:09.521Z,6768.00
2019-03-22T12:57:09.508Z,6768.00
2019-03-22T12:58:09.516Z,6780.00
2019-03-22T12:59:09.490Z,6764.00
2019-03-22T13:00:09.486Z,6696.00
2019-03-22T13:01:10.357Z,6680.00
2019-03-22T13:02:09.560Z,6668.00
2019-03-22T13:03:09.470Z,6656.00
2019-03-22T13:04:09.435Z,6648.00
2019-03-22T13:05:09.422Z,6644.00
2019-03-22T13:06:09.421Z,6624.00
2019-03-22T13:07:09.412Z,6620.00
2019-03-22T13:08:09.389Z,6616.00
2019-03-22T13:09:09.400Z,6552.00
2019-03-22T13:10:09.372Z,6596.00
2019-03-22T13:11:09.361Z,6604.00
2019-03-22T13:12:09.348Z,6588.00
2019-03-22T13:13:09.347Z,6588.00
2019-03-22T13:14:09.332Z,6516.00
2019-03-22T13:15:09.330Z,6504.00
2019-03-22T13:16:09.308Z,6536.00
2019-03-22T13:17:09.296Z,6532.00
2019-03-22T13:18:09.305Z,6548.00
2019-03-22T13:19:09.327Z,6524.00
2019-03-22T13:20:09.296Z,6540.00
2019-03-22T13:21:09.256Z,6532.00
2019-03-22T13:22:09.240Z,6520.00
2019-03-22T13:23:09.238Z,6508.00
2019-03-22T13:24:09.238Z,6464.00
2019-03-22T13:25:09.223Z,6360.00
2019-03-22T13:26:09.198Z,6340.00
2019-03-22T13:27:09.188Z,6316.00
2019-03-22T13:28:09.184Z,6264.00
2019-03-22T13:29:09.179Z,6236.00
2019-03-22T13:30:09.184Z,6140.00
2019-03-22T13:31:09.148Z,6268.00
2019-03-22T13:32:09.134Z,6300.00
2019-03-22T13:33:09.126Z,6212.00
2019-03-22T13:34:09.119Z,6136.00
2019-03-22T13:35:09.108Z,6068.00
2019-03-22T13:36:09.128Z,6160.00
2019-03-22T13:37:09.084Z,6316.00
2019-03-22T13:38:09.071Z,6328.00
2019-03-22T13:39:09.066Z,6340.00
2019-03-22T13:40:09.046Z,6384.00
2019-03-22T13:41:09.039Z,6372.00
2019-03-22T13:42:09.049Z,6360.00
2019-03-22T13:43:09.034Z,6356.00
2019-03-22T13:44:09.023Z,6348.00
2019-03-22T13:45:08.992Z,6324.00
2019-03-22T13:46:08.999Z,6320.00
2019-03-22T13:47:08.968Z,6312.00
2019-03-22T13:48:08.961Z,6308.00
2019-03-22T13:49:08.955Z,6292.00
2019-03-22T13:50:08.940Z,6284.00
2019-03-22T13:51:08.929Z,6276.00
2019-03-22T13:52:08.938Z,6264.00
2019-03-22T13:53:08.904Z,6252.00
2019-03-22T13:54:08.892Z,6256.00
2019-03-22T13:55:08.887Z,6256.00
2019-03-22T13:56:08.876Z,6260.00
2019-03-22T13:57:15.917Z,6252.00
2019-03-22T13:58:08.855Z,6224.00
2019-03-22T13:59:08.843Z,6232.00
2019-03-22T14:00:08.835Z,6224.00
2019-03-22T14:01:08.825Z,6220.00
2019-03-22T14:02:08.827Z,6216.00
2019-03-22T14:03:08.806Z,6204.00
2019-03-22T14:04:08.787Z,6196.00
2019-03-22T14:05:08.779Z,6172.00
2019-03-22T14:06:08.979Z,6164.00
2019-03-22T14:07:09.126Z,6160.00
2019-03-22T14:08:08.910Z,6164.00
2019-03-22T14:09:15.806Z,6160.00
2019-03-22T14:10:15.774Z,6148.00
2019-03-22T14:11:08.716Z,6144.00
2019-03-22T14:12:15.774Z,6108.00
2019-03-22T14:13:15.764Z,6116.00
2019-03-22T14:14:15.728Z,6104.00
2019-03-22T14:15:15.716Z,6100.00
2019-03-22T14:17:23.931Z,6096.00
2019-03-22T14:18:23.936Z,6072.00
2019-03-22T14:19:23.917Z,6068.00
2019-03-22T14:20:23.905Z,6060.00
2019-03-22T14:21:23.996Z,6048.00
2019-03-22T14:22:23.894Z,6040.00
2019-03-22T14:23:23.914Z,6024.00
2019-03-22T14:24:23.871Z,6020.00
2019-03-22T14:25:23.862Z,6020.00
2019-03-22T14:26:23.861Z,6000.00
2019-03-22T14:27:23.840Z,5992.00
2019-03-22T14:28:23.836Z,5976.00
2019-03-22T14:29:24.009Z,5984.00
2019-03-22T14:30:23.790Z,5976.00
2019-03-22T14:31:23.786Z,5968.00
2019-03-22T14:32:23.780Z,5968.00
2019-03-22T14:33:23.775Z,5960.00
2019-03-22T14:34:23.786Z,5956.00
2019-03-22T14:35:23.740Z,5944.00
2019-03-22T14:36:23.736Z,5936.00
2019-03-22T14:37:23.722Z,5912.00
2019-03-22T14:38:23.703Z,5896.00
2019-03-22T14:39:23.755Z,5892.00
2019-03-22T14:40:23.702Z,5888.00
2019-03-22T14:41:23.675Z,5876.00
2019-03-22T14:42:23.667Z,5872.00
2019-03-22T14:43:23.657Z,5844.00
2019-03-22T14:44:25.841Z,5844.00
2019-03-22T14:45:23.655Z,5840.00
2019-03-22T14:46:23.626Z,5828.00
2019-03-22T14:47:23.618Z,5816.00
2019-03-22T14:48:23.606Z,5808.00
2019-03-22T14:49:23.633Z,5792.00
2019-03-22T14:50:23.595Z,5780.00
2019-03-22T14:51:23.583Z,5780.00
2019-03-22T14:52:23.564Z,5768.00
2019-03-22T14:53:23.555Z,5756.00
2019-03-22T14:54:23.540Z,5744.00
2019-03-22T14:55:23.718Z,5724.00
2019-03-22T14:56:23.520Z,5708.00
2019-03-22T14:57:23.506Z,5708.00
2019-03-22T14:58:23.501Z,5692.00
2019-03-22T14:59:23.480Z,5692.00
2019-03-22T15:00:23.489Z,5668.00
2019-03-22T15:01:23.577Z,5640.00
2019-03-22T15:02:23.645Z,5632.00
2019-03-22T15:03:23.479Z,5616.00
2019-03-22T15:04:23.540Z,5596.00
2019-03-22T15:05:23.477Z,5576.00
2019-03-22T15:06:23.427Z,5568.00
2019-03-22T15:07:23.398Z,5580.00
2019-03-22T15:08:23.386Z,5564.00
2019-03-22T15:09:23.374Z,5540.00
2019-03-22T15:10:23.379Z,5544.00
2019-03-22T15:11:23.357Z,5512.00
2019-03-22T15:12:23.364Z,5508.00
2019-03-22T15:13:23.333Z,5480.00
2019-03-22T15:14:23.351Z,5480.00
2019-03-22T15:15:23.354Z,5464.00
2019-03-22T15:16:23.317Z,5452.00
2019-03-22T15:17:23.300Z,5424.00
2019-03-22T15:18:23.314Z,5424.00
2019-03-22T15:19:23.266Z,5408.00
2019-03-22T15:20:23.276Z,5392.00
2019-03-22T15:21:23.247Z,5372.00
2019-03-22T15:22:23.232Z,5356.00
2019-03-22T15:23:23.257Z,5340.00
2019-03-22T15:24:23.223Z,5324.00
2019-03-22T15:25:23.206Z,5316.00
2019-03-22T15:26:23.219Z,5292.00
2019-03-22T15:27:23.181Z,5272.00
2019-03-22T15:28:23.171Z,5244.00
2019-03-22T15:29:23.170Z,5232.00
2019-03-22T15:30:23.162Z,5208.00
2019-03-22T15:31:23.167Z,5192.00
2019-03-22T15:32:23.132Z,5180.00
2019-03-22T15:33:33.978Z,5152.00
2019-03-22T15:34:24.114Z,5124.00
2019-03-22T15:35:23.206Z,5100.00
2019-03-22T15:36:23.113Z,5080.00
2019-03-22T15:37:23.245Z,5060.00
2019-03-22T15:38:23.158Z,5028.00
2019-03-22T15:39:23.180Z,4996.00
2019-03-22T15:40:23.145Z,4972.00
2019-03-22T15:41:23.053Z,4964.00
2019-03-22T15:42:23.063Z,4940.00
2019-03-22T15:43:23.020Z,4920.00
2019-03-22T15:45:22.993Z,4872.00
2019-03-22T15:46:22.993Z,4832.00
2019-03-22T15:47:22.984Z,4804.00
2019-03-22T15:48:22.968Z,4772.00
2019-03-22T15:49:22.948Z,4728.00
2019-03-22T15:50:22.943Z,4676.00
2019-03-22T15:51:22.942Z,4600.00
2019-03-22T15:52:22.917Z,4528.00
2019-03-22T15:53:22.924Z,4456.00
2019-03-22T15:54:22.891Z,4360.00
2019-03-22T15:55:22.887Z,4264.00
2019-03-22T15:56:22.883Z,4164.00
2019-03-22T15:57:22.886Z,4064.00
2019-03-22T15:58:22.880Z,3948.00
2019-03-22T15:59:22.840Z,3840.00
2019-03-22T16:00:22.831Z,3748.00
2019-03-22T16:01:22.819Z,3664.00
2019-03-22T16:02:22.812Z,3608.00
2019-03-22T16:03:22.811Z,3560.00
2019-03-22T16:04:22.809Z,3544.00
2019-03-22T16:05:22.776Z,3548.00
2019-03-22T16:06:22.761Z,3552.00
2019-03-22T16:07:22.765Z,3572.00
2019-03-22T16:08:22.743Z,3588.00
2019-03-22T16:09:22.751Z,3600.00
2019-03-22T16:10:22.723Z,3608.00
2019-03-22T16:11:22.709Z,3616.00
2019-03-22T16:12:22.707Z,3632.00
2019-03-22T16:13:22.688Z,3652.00
2019-03-22T16:14:22.692Z,3672.00
2019-03-22T16:15:22.673Z,3700.00
2019-03-22T16:16:22.655Z,3732.00
2019-03-22T16:17:22.644Z,3748.00
2019-03-22T16:18:22.632Z,3748.00
2019-03-22T16:19:22.648Z,3740.00
2019-03-22T16:20:22.639Z,3716.00
2019-03-22T16:21:22.602Z,3688.00
2019-03-22T16:22:22.592Z,3644.00
2019-03-22T16:23:22.583Z,3592.00
2019-03-22T16:24:22.572Z,3536.00
2019-03-22T16:25:22.574Z,3476.00
2019-03-22T16:26:22.552Z,3428.00
2019-03-22T16:27:22.538Z,3384.00
2019-03-22T16:28:22.530Z,3336.00
2019-03-22T16:29:22.585Z,3288.00
2019-03-22T16:30:22.520Z,3232.00
2019-03-22T16:31:22.557Z,3188.00
2019-03-22T16:32:22.502Z,3144.00
2019-03-22T16:33:22.469Z,3104.00
2019-03-22T16:34:22.460Z,3044.00
2019-03-22T16:35:22.458Z,2980.00
2019-03-22T16:36:22.439Z,2908.00
2019-03-22T16:37:22.443Z,2860.00
2019-03-22T16:38:22.416Z,2812.00
2019-03-22T16:39:22.407Z,2756.00
2019-03-22T16:40:24.516Z,2708.00
2019-03-22T16:41:22.386Z,2672.00
2019-03-22T16:42:22.375Z,2640.00
2019-03-22T16:43:22.365Z,2588.00
2019-03-22T16:44:22.351Z,2556.00
2019-03-22T16:45:22.359Z,2428.00
2019-03-22T16:46:22.325Z,2328.00
2019-03-22T16:47:22.323Z,2316.00
2019-03-22T16:48:22.306Z,2320.00
2019-03-22T16:49:22.297Z,2300.00
2019-03-22T16:50:22.280Z,2276.00
2019-03-22T16:51:22.291Z,2248.00
2019-03-22T16:52:22.279Z,2216.00
2019-03-22T16:53:22.255Z,2196.00
2019-03-22T16:54:22.250Z,2148.00
2019-03-22T16:55:23.980Z,2096.00
2019-03-22T16:56:22.217Z,2052.00
2019-03-22T16:57:22.232Z,2004.00
2019-03-22T16:58:22.193Z,1960.00
2019-03-22T16:59:22.192Z,1920.00
2019-03-22T17:00:22.203Z,1884.00
2019-03-22T17:01:22.183Z,1844.00
2019-03-22T17:02:22.156Z,1808.00
2019-03-22T17:03:22.142Z,1776.00
2019-03-22T17:04:22.135Z,1744.00
2019-03-22T17:05:22.139Z,1712.00
2019-03-22T17:06:22.140Z,1672.00
2019-03-22T17:07:22.097Z,1632.00
2019-03-22T17:08:22.088Z,1596.00
2019-03-22T17:09:22.078Z,1564.00
2019-03-22T17:10:23.540Z,1528.00
2019-03-22T17:11:22.083Z,1492.00
2019-03-22T17:12:22.058Z,1456.00
2019-03-22T17:13:22.046Z,1416.00
2019-03-22T17:14:22.030Z,1368.00
2019-03-22T17:15:22.011Z,1324.00